»·PEaware :: N4657 KRAL-KLGB

N4657 :: KRAL-KLGB

FLIGHT INFORMATION

Flight Status: Arrived
Operator: Privately registered:
United States
More flights under this callsign
Pilot: Daniel P. (20187)
Aircraft: PILATUS PC-12 EAGLE
(PC12)
More flights by this aircraft type
Origin: KRAL Riverside Mun
United States
Destination: KLGB Long Beach
United States
More flights between these airports :: More routes between these airports
Route: +PDZ PDZ270/15 DOWDD V394 SLI
File this flight plan on PilotEdge
Remarks: TEC Rooute ONTP9
Altitude:
(Current/Filed)
40ft
Speed:
(Current/Filed)
200kts
Departed: 01-Oct-18 02:30 PM
Arrived: 01-Oct-18 02:52 PM
Distance/Time
Traveled:
36nm/0:22
Distance/Time
To Go:
Arrived

Flight Plot

Page will automatically refresh every two minutes.

Flight plan parsing failed; only flown route is shown


Map Options




Map Legend


Flown Route
Filed Route
Departure Airport
Arrival Airport
Navaid (VOR, NDB)
Fix

Horizontal Profiles

Position Reports

Time Latitude Longitude Heading Altitude Ground
Speed
01-Oct-18 13:47 33.950619 -117.443213 302 781ft 0kts
01-Oct-18 13:48 33.950619 -117.443213 302 781ft 0kts
01-Oct-18 13:49 33.950619 -117.443213 302 781ft 0kts
01-Oct-18 13:50 33.950619 -117.443213 302 781ft 0kts
01-Oct-18 13:51 33.950619 -117.443213 302 781ft 0kts
01-Oct-18 13:52 33.950619 -117.443213 302 781ft 0kts
01-Oct-18 13:53 33.950619 -117.443213 302 781ft 0kts
01-Oct-18 13:54 33.950619 -117.443213 302 781ft 0kts
01-Oct-18 13:55 33.950619 -117.443213 302 781ft 0kts
01-Oct-18 13:56 33.950619 -117.443213 302 781ft 0kts
01-Oct-18 13:57 33.950619 -117.443213 302 781ft 0kts
01-Oct-18 13:58 33.950619 -117.443213 302 781ft 0kts
01-Oct-18 13:59 33.950619 -117.443213 302 781ft 0kts
01-Oct-18 14:00 33.950619 -117.443213 302 781ft 0kts
01-Oct-18 14:01 33.950619 -117.443213 302 781ft 0kts
01-Oct-18 14:02 33.950619 -117.443213 302 781ft 0kts
01-Oct-18 14:03 33.950619 -117.443213 302 781ft 0kts
01-Oct-18 14:04 33.950619 -117.443213 302 781ft 0kts
01-Oct-18 14:05 33.950619 -117.443213 302 781ft 0kts
01-Oct-18 14:06 33.950619 -117.443213 302 781ft 0kts
01-Oct-18 14:07 33.950619 -117.443213 302 781ft 0kts
01-Oct-18 14:08 33.950619 -117.443213 302 781ft 0kts
01-Oct-18 14:09 33.950619 -117.443214 302 781ft 0kts
01-Oct-18 14:10 33.950619 -117.443214 302 781ft 0kts
01-Oct-18 14:11 33.950619 -117.443214 302 781ft 0kts
01-Oct-18 14:12 33.950619 -117.443214 302 781ft 0kts
01-Oct-18 14:13 33.950619 -117.443214 302 781ft 0kts
01-Oct-18 14:14 33.950619 -117.443214 302 781ft 0kts
01-Oct-18 14:15 33.950619 -117.443214 302 781ft 0kts
01-Oct-18 14:16 33.950619 -117.443214 302 781ft 0kts
01-Oct-18 14:17 33.950619 -117.443214 302 781ft 0kts
01-Oct-18 14:18 33.950619 -117.443214 302 781ft 0kts
01-Oct-18 14:19 33.950619 -117.443214 302 781ft 0kts
01-Oct-18 14:20 33.950619 -117.443214 302 781ft 0kts
01-Oct-18 14:21 33.950619 -117.443214 302 781ft 0kts
01-Oct-18 14:22 33.950619 -117.443214 302 781ft 0kts
01-Oct-18 14:23 33.950619 -117.443214 302 781ft 0kts
01-Oct-18 14:24 33.950619 -117.443214 302 781ft 0kts
01-Oct-18 14:25 33.950665 -117.443292 310 781ft 4kts
01-Oct-18 14:26 33.950716 -117.441611 110 790ft 7kts
01-Oct-18 14:27 33.950636 -117.439183 103 802ft 10kts
01-Oct-18 14:28 33.949910 -117.435471 100 813ft 7kts
01-Oct-18 14:29 33.949970 -117.434952 9 814ft 0kts
01-Oct-18 14:30 33.949970 -117.434952 9 814ft 0kts
01-Oct-18 14:31 33.950655 -117.435241 280 815ft 1kts
01-Oct-18 14:32 33.953621 -117.460937 246 1425ft 113kts
01-Oct-18 14:33 33.933437 -117.495656 241 3057ft 149kts
01-Oct-18 14:34 33.920066 -117.546511 273 3991ft 188kts
01-Oct-18 14:35 33.925156 -117.613381 275 3985ft 212kts
01-Oct-18 14:36 33.930837 -117.682099 274 3978ft 212kts
01-Oct-18 14:37 33.936587 -117.752151 275 3971ft 211kts
01-Oct-18 14:38 33.942182 -117.820707 274 3964ft 201kts
01-Oct-18 14:39 33.912721 -117.866703 204 3960ft 198kts
01-Oct-18 14:40 33.862584 -117.891427 203 3965ft 192kts
01-Oct-18 14:41 33.821571 -117.915624 240 3968ft 142kts
01-Oct-18 14:42 33.808673 -117.957044 250 3969ft 131kts
01-Oct-18 14:43 33.797753 -117.998770 253 3966ft 131kts
01-Oct-18 14:44 33.770168 -118.002133 152 3968ft 133kts
01-Oct-18 14:45 33.737899 -117.979078 152 3972ft 141kts
01-Oct-18 14:46 33.703836 -117.954881 152 3973ft 147kts
01-Oct-18 14:47 33.675182 -117.964160 274 3857ft 157kts
01-Oct-18 14:48 33.702358 -118.011829 311 3096ft 188kts
01-Oct-18 14:49 33.734694 -118.050944 311 2335ft 159kts
01-Oct-18 14:50 33.769518 -118.066073 12 1993ft 132kts
01-Oct-18 14:51 33.800497 -118.064891 331 1546ft 108kts
01-Oct-18 14:52 33.820824 -118.092240 283 1115ft 115kts
01-Oct-18 14:53 33.822612 -118.122821 267 526ft 97kts
01-Oct-18 14:54 33.822744 -118.154542 269 48ft 30kts
01-Oct-18 14:55 33.821866 -118.157307 180 50ft 0kts
01-Oct-18 14:56 33.821866 -118.157307 180 50ft 0kts
01-Oct-18 14:57 33.821655 -118.156705 91 50ft 7kts
01-Oct-18 14:58 33.821639 -118.153327 89 46ft 9kts
01-Oct-18 14:59 33.821621 -118.148720 91 41ft 5kts
01-Oct-18 15:00 33.821618 -118.148496 91 40ft 0kts
01-Oct-18 15:01 33.821614 -118.147976 92 40ft 9kts
01-Oct-18 15:02 33.819699 -118.146450 62 36ft 9kts
01-Oct-18 15:03 33.819875 -118.145862 75 36ft 0kts

Navigation Log

Ident Type
Flight plan parsing failed, navigation log unavailable